Northport, MI (49670)

5:23 PM EST on December 10, 2016 (GMT -0500)
Northern Rolling Hills | | Change Station
Active Advisory: Winter Weather Advisory

Elev 650 ft 45.10 °N, 85.61 °W | Updated 23 seconds ago

Overcast
Overcast
20.7 °F
Feels Like 21 °F
N
0.0
Wind Variable Wind from SW
Gusts 0.0 mph

Today
High -- | Low -- °F
--% Chance of Precip.
Yesterday
High -- | Low -- °F
Precip. -- in
Pressure 30.34 in
Visibility 10.0 miles
Clouds Scattered Clouds 3000 ft
Scattered Clouds 4100 ft
Overcast 4900 ft
Windchill 21 °F
Dew Point 7 °F
Humidity 56%
Rainfall 0.00 in
Snow Depth Not available.
8:10 AM 5:00 PM
Waxing Gibbous, 86% visible
METAR KCVX 102215Z AUTO 23005KT 10SM SCT030 SCT041 OVC049 M06/M10 A3034 RMK AO2 T10581097
Pressure 30.34 in
Visibility 10.0 miles
Clouds Scattered Clouds 3000 ft
Scattered Clouds 4100 ft
Overcast 4900 ft
Windchill 21 °F
Dew Point 7 °F
Humidity 56%
Rainfall 0.00 in
Snow Depth Not available.
8:10 AM 5:00 PM
Waxing Gibbous, 86% visible
METAR KCVX 102215Z AUTO 23005KT 10SM SCT030 SCT041 OVC049 M06/M10 A3034 RMK AO2 T10581097

10-Day Weather Forecast

Almanac

Astronomy

Dec. 10, 2016 Rise Set
Actual Time
Civil Twilight
Nautical Twilight
Astronomical Twilight
Moon
Length of Visible Light
Length of Day
Tomorrow will be .
, % of the Moon is Illuminated

Today's Extremes

State Highs State Lows

Community

WunderPhotos

Upload Photos

1,956,672 photos uploaded!

WunderBlog® & News

Nearby

Air Quality

  Air Quality AQ Index Pollutant
Not available.

Snow Depth

Station Depth Elevation

Earthquake Activity

City Distance Mag. Time & Date
Minimum magnitude displayed is 2.5.

Coastal Water Temperatures

Place Temperature

Stations

Nearby Weather Stations

Station Location Temp. Windchill Dew Point Humidity Wind Precip. Elev Updated Type
                   

Watches & Warnings

Winter Weather Advisory
Issued: 3:40 PM EST Dec. 10, 2016 – National Weather Service

... Winter Weather Advisory in effect from 7 am Sunday to 7 am EST
Monday...

The National Weather Service in Gaylord has issued a Winter
Weather Advisory... which is in effect from 7 am Sunday to 7 am
EST Monday.

* Snow will overspread northern Michigan from southwest to
northeast Sunday morning... eventually diminishing from west to
east Sunday night.

* The heaviest snowfall rates will occur Sunday afternoon into
early Sunday evening.

* Total snow accumulations of 3 to 7 inches are expected with the
highest amounts south of M-55.

* Look for reduced visibilities at times.

* Plan on slippery Road conditions.

Precautionary/preparedness actions...

A Winter Weather Advisory for snow means periods of snow will
cause primarily travel difficulties. Be prepared for snow covered
roads and limited visibilities... and use caution while driving.
For the latest Road conditions... go to the mdot website at
Michigan.Gov.